Time;durP1;ratioP1;P1;durP2;ratioP2;P2;SDS_P1;SDS_P2;PMS_P1;PMS_P2;Temp;Humidity;BMP_temperature;BMP_pressure;BME280_temperature;BME280_humidity;BME280_pressure;Samples;Min_cycle;Max_cycle;Signal;HPM_P1;HPM_P2
2022/10/06 00:02:10;;;;;;;16.08;2.65;;;;;;;8.44;100.00;101428.22;5026748;28;20067;-79
2022/10/06 00:04:36;;;;;;;15.93;1.65;;;;;;;8.66;100.00;101440.44;5024564;28;20036;-81
2022/10/06 00:07:01;;;;;;;12.50;1.88;;;;;;;8.84;100.00;101435.13;5019684;28;20049;-80
2022/10/06 00:09:27;;;;;;;12.02;2.45;;;;;;;9.00;100.00;101444.25;5011326;28;20387;-80
2022/10/06 00:11:53;;;;;;;10.90;1.90;;;;;;;9.15;100.00;101439.22;5008771;28;20041;-80
2022/10/06 00:14:18;;;;;;;9.38;1.70;;;;;;;9.21;100.00;101422.53;5014221;28;20041;-80
2022/10/06 00:16:44;;;;;;;17.33;3.08;;;;;;;9.33;100.00;101441.09;5025947;28;20033;-81
2022/10/06 00:19:09;;;;;;;15.90;2.58;;;;;;;9.28;100.00;101433.50;5027039;28;20102;-80
2022/10/06 00:21:35;;;;;;;24.40;3.05;;;;;;;9.32;100.00;101429.53;5022587;28;20033;-81
2022/10/06 00:24:01;;;;;;;19.80;2.92;;;;;;;9.29;100.00;101428.97;5003448;28;20025;-81
2022/10/06 00:26:26;;;;;;;11.55;1.70;;;;;;;9.31;100.00;101422.44;5025617;28;20029;-80
2022/10/06 00:28:52;;;;;;;12.60;1.83;;;;;;;9.41;100.00;101438.50;5024177;28;20041;-80
2022/10/06 00:31:18;;;;;;;9.23;1.50;;;;;;;9.50;100.00;101445.66;5010409;28;20044;-80
2022/10/06 00:33:44;;;;;;;15.02;2.08;;;;;;;9.67;100.00;101441.28;5024363;28;20458;-80
2022/10/06 00:36:10;;;;;;;16.17;2.40;;;;;;;9.78;100.00;101435.69;5008251;28;20041;-80
2022/10/06 00:38:35;;;;;;;14.73;2.08;;;;;;;9.83;100.00;101429.84;4999419;28;20103;-80
2022/10/06 00:41:01;;;;;;;13.60;1.83;;;;;;;9.78;100.00;101422.25;5006807;28;20026;-80
2022/10/06 00:43:49;;;;;;;8.88;2.13;;;;;;;9.94;100.00;101437.66;5025679;28;20029;-80
2022/10/06 00:46:21;;;;;;;13.68;2.17;;;;;;;9.98;100.00;101441.75;5008328;28;20087;-80
2022/10/06 00:48:51;;;;;;;13.68;2.33;;;;;;;10.02;100.00;101443.09;4995055;28;20044;-80
2022/10/06 00:51:17;;;;;;;19.52;2.75;;;;;;;10.08;100.00;101436.25;4990868;28;20060;-81
2022/10/06 00:53:43;;;;;;;8.15;1.40;;;;;;;10.12;100.00;101422.38;5008227;28;20041;-80
2022/10/06 00:56:09;;;;;;;6.95;1.63;;;;;;;10.20;100.00;101429.66;5007290;28;20097;-81
2022/10/06 00:58:34;;;;;;;12.60;1.58;;;;;;;10.28;100.00;101427.03;5023081;28;20112;-83
2022/10/06 01:01:00;;;;;;;20.48;2.72;;;;;;;10.28;100.00;101418.97;5003548;28;20049;-81
2022/10/06 01:03:30;;;;;;;15.40;2.63;;;;;;;10.44;100.00;101426.31;4988734;28;20038;-82
2022/10/06 01:05:57;;;;;;;5.22;1.65;;;;;;;10.48;100.00;101418.78;5008870;28;20033;-81
2022/10/06 01:08:22;;;;;;;7.75;1.77;;;;;;;10.51;100.00;101416.59;5022322;28;20037;-81
2022/10/06 01:10:48;;;;;;;9.93;3.50;;;;;;;10.62;100.00;101422.72;5029782;28;20076;-81
2022/10/06 01:13:14;;;;;;;10.85;2.90;;;;;;;10.67;100.00;101423.94;4986730;28;20038;-82
2022/10/06 01:15:46;;;;;;;10.98;2.08;;;;;;;10.74;100.00;101422.28;5025205;28;20310;-80
2022/10/06 01:18:14;;;;;;;9.27;2.35;;;;;;;10.78;100.00;101417.41;5005492;28;20040;-81
2022/10/06 01:20:51;;;;;;;12.93;2.25;;;;;;;10.81;100.00;101410.88;5024053;28;20398;-80
2022/10/06 01:23:18;;;;;;;23.83;3.08;;;;;;;10.84;100.00;101416.75;5010552;28;20045;-80
2022/10/06 01:25:43;;;;;;;8.93;1.52;;;;;;;10.73;100.00;101404.44;5007528;28;20036;-84
2022/10/06 01:28:10;;;;;;;8.63;1.83;;;;;;;10.64;100.00;101409.94;5007636;28;20034;-81
2022/10/06 01:30:51;;;;;;;15.75;2.80;;;;;;;10.71;100.00;101414.50;5011141;28;20052;-81
2022/10/06 01:33:18;;;;;;;12.10;2.28;;;;;;;10.91;100.00;101427.75;5005815;28;20043;-80
2022/10/06 01:35:49;;;;;;;5.90;2.00;;;;;;;10.92;100.00;101427.56;4994752;28;20044;-80
2022/10/06 01:38:16;;;;;;;15.82;3.28;;;;;;;10.90;100.00;101429.59;5022123;28;20033;-82
2022/10/06 01:40:42;;;;;;;12.45;2.10;;;;;;;10.83;100.00;101425.84;5021060;28;20037;-81
2022/10/06 01:43:08;;;;;;;13.82;3.22;;;;;;;10.65;100.00;101395.50;5008873;28;20091;-81
2022/10/06 01:45:34;;;;;;;15.25;2.13;;;;;;;10.84;100.00;101410.53;5024752;28;20037;-80
2022/10/06 01:47:59;;;;;;;4.80;1.70;;;;;;;10.94;100.00;101413.97;5002975;28;20441;-82
2022/10/06 01:50:25;;;;;;;18.73;2.58;;;;;;;11.07;100.00;101411.66;5009442;28;20064;-81
2022/10/06 01:52:50;;;;;;;13.20;2.05;;;;;;;11.14;100.00;101418.06;5007854;28;20114;-82
2022/10/06 01:55:16;;;;;;;8.68;2.28;;;;;;;11.08;100.00;101412.50;5021367;28;20037;-80
2022/10/06 01:57:42;;;;;;;12.70;2.00;;;;;;;10.98;100.00;101408.09;5006626;28;20127;-80
2022/10/06 02:00:09;;;;;;;10.30;3.00;;;;;;;11.02;100.00;101421.22;5004551;28;20442;-80
2022/10/06 02:02:38;;;;;;;9.52;1.98;;;;;;;10.98;100.00;101408.09;4988709;28;20029;-81
2022/10/06 02:05:06;;;;;;;9.57;2.58;;;;;;;11.06;100.00;101411.81;5006539;28;20104;-81
2022/10/06 02:07:34;;;;;;;9.45;1.83;;;;;;;11.11;100.00;101404.09;5009681;28;20048;-81
2022/10/06 02:10:00;;;;;;;11.80;2.95;;;;;;;11.11;100.00;101412.16;5019594;28;20061;-81
2022/10/06 02:12:25;;;;;;;16.40;3.25;;;;;;;11.06;100.00;101399.22;5020940;28;20072;-81
2022/10/06 02:14:51;;;;;;;5.65;1.85;;;;;;;11.13;100.00;101404.78;5005281;28;20095;-82
2022/10/06 02:17:16;;;;;;;10.50;2.15;;;;;;;11.16;100.00;101405.28;5024368;28;20079;-81
2022/10/06 02:19:42;;;;;;;22.55;6.57;;;;;;;11.18;100.00;101405.13;4990700;28;20486;-80
2022/10/06 02:22:08;;;;;;;12.32;1.63;;;;;;;11.06;100.00;101398.34;5007317;28;20044;-81
2022/10/06 02:24:33;;;;;;;12.60;2.25;;;;;;;11.02;100.00;101386.25;4990109;28;20501;-80
2022/10/06 02:26:59;;;;;;;10.05;1.83;;;;;;;11.07;100.00;101382.03;5002113;28;20025;-81
2022/10/06 02:29:25;;;;;;;9.07;1.98;;;;;;;11.13;100.00;101392.16;4992442;28;20029;-82
2022/10/06 02:31:51;;;;;;;18.40;2.42;;;;;;;10.98;100.00;101364.19;5025161;28;20030;-81
2022/10/06 02:34:19;;;;;;;11.93;3.05;;;;;;;11.18;100.00;101394.34;4991736;28;20062;-81
2022/10/06 02:36:44;;;;;;;16.88;2.80;;;;;;;11.28;100.00;101413.06;5023508;28;20087;-81
2022/10/06 02:39:10;;;;;;;13.80;2.22;;;;;;;11.24;100.00;101393.69;5018874;28;20517;-81
2022/10/06 02:41:39;;;;;;;19.75;2.88;;;;;;;11.41;100.00;101397.28;5007222;28;20033;-83
2022/10/06 02:44:14;;;;;;;16.25;2.97;;;;;;;11.47;100.00;101388.53;5002480;28;20052;-81
2022/10/06 02:46:40;;;;;;;7.80;2.85;;;;;;;11.50;100.00;101390.88;5003019;28;20034;-79
2022/10/06 02:49:06;;;;;;;7.07;2.00;;;;;;;11.54;100.00;101396.78;5005498;28;20047;-79
2022/10/06 02:51:32;;;;;;;11.95;2.55;;;;;;;11.67;100.00;101402.53;5011834;28;20037;-81
2022/10/06 02:53:58;;;;;;;5.18;1.25;;;;;;;11.67;100.00;101416.00;5023500;28;20033;-79
2022/10/06 02:56:25;;;;;;;1.38;0.80;;;;;;;11.73;100.00;101447.66;5027382;28;20033;-79
2022/10/06 02:58:52;;;;;;;0.60;0.50;;;;;;;11.62;100.00;101442.59;5003922;28;20042;-79
2022/10/06 03:01:20;;;;;;;0.40;0.40;;;;;;;11.58;100.00;101446.63;5021250;28;20046;-79
2022/10/06 03:03:46;;;;;;;0.40;0.40;;;;;;;11.48;100.00;101430.59;5007753;28;20033;-79
2022/10/06 03:06:21;;;;;;;0.30;0.30;;;;;;;11.44;100.00;101448.94;5019270;28;20037;-79
2022/10/06 03:08:55;;;;;;;0.40;0.40;;;;;;;11.39;100.00;101445.91;4997957;28;20034;-79
2022/10/06 03:11:24;;;;;;;2.55;0.90;;;;;;;11.28;100.00;101429.22;5008611;28;20071;-79
2022/10/06 03:13:50;;;;;;;1.75;0.57;;;;;;;11.28;100.00;101440.81;5019460;28;20160;-80
2022/10/06 03:16:23;;;;;;;1.17;0.70;;;;;;;11.22;100.00;101430.72;5012581;28;20041;-79
2022/10/06 03:18:50;;;;;;;1.95;0.60;;;;;;;11.10;100.00;101415.88;4994033;28;20494;-79
2022/10/06 03:21:17;;;;;;;0.50;0.50;;;;;;;11.05;100.00;101426.28;4998169;28;20069;-79
2022/10/06 03:23:43;;;;;;;0.30;0.30;;;;;;;10.98;100.00;101434.13;5021479;28;20064;-80
2022/10/06 03:26:10;;;;;;;7.22;0.80;;;;;;;10.81;100.00;101438.63;4992649;28;20449;-79
2022/10/06 03:28:35;;;;;;;0.30;0.30;;;;;;;10.65;100.00;101425.91;4982833;28;20071;-81
2022/10/06 03:31:02;;;;;;;0.40;0.40;;;;;;;10.63;100.00;101429.78;5006078;28;20476;-81
2022/10/06 03:33:28;;;;;;;0.38;0.38;;;;;;;10.56;100.00;101437.66;5022553;28;20382;-80
2022/10/06 03:36:03;;;;;;;0.30;0.30;;;;;;;10.56;100.00;101440.34;5029859;28;20045;-79
2022/10/06 03:38:30;;;;;;;0.32;0.32;;;;;;;10.69;100.00;101447.94;4999318;28;20045;-80
2022/10/06 03:41:13;;;;;;;0.35;0.35;;;;;;;10.77;100.00;101432.72;5025385;28;20033;-81
2022/10/06 03:43:41;;;;;;;0.40;0.40;;;;;;;10.73;100.00;101419.75;4993617;28;20136;-80
2022/10/06 03:46:10;;;;;;;0.50;0.50;;;;;;;10.89;100.00;101441.34;5015828;28;20033;-80
2022/10/06 03:48:36;;;;;;;0.40;0.40;;;;;;;10.93;100.00;101448.09;5011299;28;20040;-81
2022/10/06 03:51:03;;;;;;;0.40;0.40;;;;;;;10.92;100.00;101448.25;5006703;28;20252;-80
2022/10/06 03:53:29;;;;;;;0.30;0.30;;;;;;;11.03;100.00;101447.13;4989400;28;20036;-82
2022/10/06 03:56:07;;;;;;;0.40;0.40;;;;;;;11.01;100.00;101447.28;4985765;28;20040;-80
2022/10/06 03:58:35;;;;;;;0.30;0.30;;;;;;;11.06;100.00;101450.34;5007978;28;20037;-79
2022/10/06 04:01:04;;;;;;;0.40;0.40;;;;;;;11.07;100.00;101445.81;5020934;28;20045;-79
2022/10/06 04:03:30;;;;;;;0.40;0.40;;;;;;;11.02;100.00;101440.06;5005191;28;20029;-79
2022/10/06 04:05:58;;;;;;;0.40;0.40;;;;;;;11.05;100.00;101439.72;4985044;28;20029;-81
2022/10/06 04:08:24;;;;;;;0.30;0.30;;;;;;;11.08;100.00;101425.94;5006935;28;20124;-79
2022/10/06 04:10:50;;;;;;;0.40;0.40;;;;;;;11.16;100.00;101434.88;5022666;28;20026;-80
2022/10/06 04:13:17;;;;;;;0.30;0.30;;;;;;;11.19;100.00;101426.50;5008585;28;20041;-81
2022/10/06 04:15:44;;;;;;;0.30;0.30;;;;;;;11.31;100.00;101445.03;5009619;28;20037;-81
2022/10/06 04:18:10;;;;;;;0.30;0.30;;;;;;;11.27;100.00;101433.75;5026716;28;20043;-80
2022/10/06 04:20:36;;;;;;;0.95;0.52;;;;;;;11.39;100.00;101436.97;5027034;28;20045;-80
2022/10/06 04:23:02;;;;;;;0.43;0.43;;;;;;;11.52;100.00;101452.66;5009477;28;20041;-80
2022/10/06 04:25:27;;;;;;;0.38;0.38;;;;;;;11.63;100.00;101438.88;5011118;28;20463;-80
2022/10/06 04:27:53;;;;;;;0.35;0.35;;;;;;;11.62;100.00;101427.25;4989923;28;20038;-81
2022/10/06 04:30:19;;;;;;;0.68;0.60;;;;;;;11.92;100.00;101448.38;5025654;28;20040;-80
2022/10/06 04:32:44;;;;;;;0.68;0.50;;;;;;;12.02;100.00;101444.50;5024700;28;20021;-80
2022/10/06 04:35:11;;;;;;;0.40;0.40;;;;;;;12.08;100.00;101441.13;5027082;28;20037;-80
2022/10/06 04:37:36;;;;;;;0.32;0.32;;;;;;;12.10;100.00;101436.41;4995937;28;20133;-80
2022/10/06 04:40:03;;;;;;;0.30;0.30;;;;;;;12.18;100.00;101443.66;5020365;28;20123;-80
2022/10/06 04:42:28;;;;;;;0.43;0.43;;;;;;;12.23;100.00;101445.84;5023898;28;20052;-79
2022/10/06 04:44:54;;;;;;;1.35;0.77;;;;;;;12.22;100.00;101428.81;5006166;28;20139;-80
2022/10/06 04:47:20;;;;;;;4.47;0.70;;;;;;;12.28;100.00;101448.88;5009955;28;20029;-79
2022/10/06 04:49:46;;;;;;;1.85;0.55;;;;;;;12.16;100.00;101434.06;5027397;28;20038;-83
2022/10/06 04:52:11;;;;;;;0.55;0.55;;;;;;;12.19;100.00;101450.72;5002091;28;20120;-80
2022/10/06 04:54:37;;;;;;;0.65;0.60;;;;;;;11.92;100.00;101410.66;5004504;28;20438;-80
2022/10/06 04:57:04;;;;;;;2.78;0.70;;;;;;;12.00;100.00;101441.13;5021997;28;20021;-80
2022/10/06 05:02:15;;;;;;;0.57;0.52;;;;;;;11.95;100.00;101445.34;5020486;28;20122;-82
2022/10/06 05:04:40;;;;;;;0.75;0.73;;;;;;;11.87;100.00;101446.16;5011477;28;20072;-79
2022/10/06 05:07:06;;;;;;;0.40;0.40;;;;;;;11.86;100.00;101456.13;5021938;28;20036;-80
2022/10/06 05:09:32;;;;;;;0.50;0.50;;;;;;;11.81;100.00;101433.34;5025997;28;20517;-79
2022/10/06 05:11:57;;;;;;;0.40;0.40;;;;;;;12.10;100.00;101457.97;5009355;28;20037;-79
2022/10/06 05:14:23;;;;;;;1.45;0.75;;;;;;;12.08;100.00;101456.47;4996250;28;20083;-80
2022/10/06 05:16:49;;;;;;;4.80;1.10;;;;;;;12.10;100.00;101470.63;4993205;28;20038;-83
2022/10/06 05:19:14;;;;;;;0.40;0.40;;;;;;;11.98;100.00;101463.88;5002499;28;20037;-79
2022/10/06 05:21:40;;;;;;;0.30;0.30;;;;;;;11.95;100.00;101472.28;4998163;28;20475;-80
2022/10/06 05:24:06;;;;;;;0.40;0.40;;;;;;;11.86;100.00;101469.59;5007111;28;20030;-79
2022/10/06 05:26:33;;;;;;;0.65;0.57;;;;;;;11.75;100.00;101461.81;5004832;28;20044;-81
2022/10/06 05:28:58;;;;;;;0.82;0.82;;;;;;;11.74;100.00;101472.75;5007177;28;20104;-79
2022/10/06 05:31:26;;;;;;;2.35;0.70;;;;;;;11.62;100.00;101464.97;5008086;28;20470;-80
2022/10/06 05:33:53;;;;;;;0.40;0.40;;;;;;;11.63;100.00;101458.56;4991885;28;20459;-79
2022/10/06 05:36:20;;;;;;;0.40;0.40;;;;;;;11.62;100.00;101470.38;5023212;28;20083;-79
2022/10/06 05:38:46;;;;;;;0.40;0.40;;;;;;;11.62;100.00;101475.75;5026209;28;20036;-79
2022/10/06 05:41:21;;;;;;;2.10;0.70;;;;;;;11.58;100.00;101484.31;5006558;28;20096;-79
2022/10/06 05:43:47;;;;;;;0.40;0.40;;;;;;;11.49;100.00;101474.53;5013153;28;20477;-79
2022/10/06 05:46:23;;;;;;;0.40;0.40;;;;;;;11.49;100.00;101477.25;5009061;28;20172;-79
2022/10/06 05:48:56;;;;;;;0.40;0.40;;;;;;;11.42;100.00;101483.25;4991888;28;20033;-80
2022/10/06 05:51:24;;;;;;;0.50;0.50;;;;;;;11.52;100.00;101482.28;4985731;28;20052;-79
2022/10/06 05:53:50;;;;;;;0.40;0.40;;;;;;;11.50;100.00;101487.00;5015448;28;20040;-80
2022/10/06 05:56:21;;;;;;;0.40;0.40;;;;;;;11.40;100.00;101471.81;5007850;28;20025;-79
2022/10/06 05:58:48;;;;;;;0.40;0.40;;;;;;;11.53;100.00;101484.81;5000424;28;20038;-81
2022/10/06 06:01:16;;;;;;;0.40;0.40;;;;;;;11.50;100.00;101484.31;5014772;28;20032;-79
2022/10/06 06:03:46;;;;;;;0.35;0.35;;;;;;;11.47;100.00;101488.16;5021909;28;20048;-80
2022/10/06 06:06:18;;;;;;;0.38;0.38;;;;;;;11.65;100.00;101501.53;4991683;28;20029;-78
2022/10/06 06:08:43;;;;;;;0.40;0.40;;;;;;;11.73;100.00;101503.41;4994070;28;20057;-81
2022/10/06 06:11:10;;;;;;;0.40;0.40;;;;;;;11.83;100.00;101502.22;5017593;28;20071;-79
2022/10/06 06:13:35;;;;;;;0.30;0.30;;;;;;;11.99;100.00;101514.91;5002626;28;20025;-79
2022/10/06 06:16:04;;;;;;;0.30;0.30;;;;;;;11.98;100.00;101496.22;4984653;28;20100;-79
2022/10/06 06:18:31;;;;;;;1.00;0.98;;;;;;;12.20;100.00;101509.03;5019908;28;20464;-80
2022/10/06 06:20:58;;;;;;;0.73;0.57;;;;;;;12.27;100.00;101501.94;5017336;28;20041;-79
2022/10/06 06:23:24;;;;;;;0.52;0.52;;;;;;;12.39;100.00;101515.09;5019229;28;20459;-79
2022/10/06 06:26:01;;;;;;;0.40;0.40;;;;;;;12.36;100.00;101497.41;5026404;28;20034;-79
2022/10/06 06:28:28;;;;;;;0.30;0.30;;;;;;;12.48;100.00;101508.69;5012511;28;20029;-79
2022/10/06 06:31:08;;;;;;;0.40;0.40;;;;;;;12.51;100.00;101501.09;5012168;28;20474;-79
2022/10/06 06:33:37;;;;;;;0.40;0.40;;;;;;;12.55;100.00;101507.00;4993754;28;20124;-80
2022/10/06 06:36:17;;;;;;;0.40;0.40;;;;;;;12.55;100.00;101498.91;4986846;28;20026;-80
2022/10/06 06:38:58;;;;;;;0.30;0.30;;;;;;;12.66;100.00;101517.44;5020609;28;20044;-80
2022/10/06 06:41:32;;;;;;;0.40;0.40;;;;;;;12.73;100.00;101512.22;5007325;28;20183;-81
2022/10/06 06:43:59;;;;;;;0.63;0.30;;;;;;;12.77;100.00;101508.97;5027028;28;20037;-79
2022/10/06 06:46:26;;;;;;;0.90;0.40;;;;;;;12.82;100.00;101508.47;5010239;28;20498;-80
2022/10/06 06:48:57;;;;;;;3.40;0.68;;;;;;;12.84;100.00;101511.84;4994929;28;20044;-83
2022/10/06 06:51:23;;;;;;;0.30;0.30;;;;;;;12.73;100.00;101496.84;5004474;28;20038;-79
2022/10/06 06:53:49;;;;;;;0.47;0.47;;;;;;;12.91;100.00;101529.03;5026761;28;20091;-79
2022/10/06 06:56:16;;;;;;;0.50;0.50;;;;;;;12.91;100.00;101520.06;5008814;28;20447;-78
2022/10/06 06:58:48;;;;;;;1.63;0.60;;;;;;;12.93;100.00;101518.88;4997505;28;20037;-79
2022/10/06 07:01:20;;;;;;;0.55;0.45;;;;;;;13.00;100.00;101523.63;5012707;28;20329;-79
2022/10/06 07:03:53;;;;;;;0.85;0.50;;;;;;;13.01;100.00;101531.53;5017812;28;20037;-80
2022/10/06 07:06:19;;;;;;;0.40;0.40;;;;;;;13.02;100.00;101532.34;5019884;28;20030;-78
2022/10/06 07:08:46;;;;;;;0.60;0.60;;;;;;;13.08;100.00;101532.53;5012893;28;20040;-78
2022/10/06 07:11:22;;;;;;;1.20;0.50;;;;;;;13.14;100.00;101542.63;5025188;28;20056;-80
2022/10/06 07:14:01;;;;;;;2.15;0.70;;;;;;;13.20;100.00;101538.38;5019418;28;20048;-81
2022/10/06 07:27:31;;;;;;;0.40;0.40;;;;;;;13.05;100.00;101540.97;5002452;28;20332;-81
2022/10/06 07:29:57;;;;;;;0.70;0.70;;;;;;;12.96;100.00;101539.28;5005848;28;20018;-79
2022/10/06 07:32:24;;;;;;;2.25;0.65;;;;;;;12.86;100.00;101542.19;5009175;28;20030;-79
2022/10/06 07:34:50;;;;;;;0.50;0.50;;;;;;;12.83;100.00;101553.31;4986373;28;20068;-79
2022/10/06 07:37:17;;;;;;;1.42;0.60;;;;;;;12.90;100.00;101542.69;5019535;28;20068;-79
2022/10/06 07:39:48;;;;;;;1.75;0.82;;;;;;;13.03;100.00;101547.56;5002920;28;20068;-78
2022/10/06 07:42:15;;;;;;;0.50;0.50;;;;;;;13.11;100.00;101544.84;5006539;28;20037;-82
2022/10/06 07:44:41;;;;;;;1.00;0.80;;;;;;;13.14;100.00;101544.47;5040626;28;20047;-77
2022/10/06 07:47:07;;;;;;;0.45;0.45;;;;;;;13.07;100.00;101549.75;5024055;28;20487;-80
2022/10/06 07:49:33;;;;;;;0.55;0.55;;;;;;;13.07;100.00;101548.88;5008559;28;20498;-78
2022/10/06 07:52:00;;;;;;;0.40;0.40;;;;;;;13.07;100.00;101548.88;5006693;28;20033;-79
2022/10/06 07:54:25;;;;;;;0.40;0.40;;;;;;;13.02;100.00;101537.75;5022056;28;20299;-78
2022/10/06 07:56:52;;;;;;;1.05;0.50;;;;;;;13.11;100.00;101561.88;5007152;28;20391;-78
2022/10/06 07:59:18;;;;;;;0.40;0.40;;;;;;;13.15;100.00;101548.84;5009071;28;20037;-79
2022/10/06 08:01:44;;;;;;;0.30;0.30;;;;;;;13.14;100.00;101564.22;5007776;28;20047;-78
2022/10/06 08:04:11;;;;;;;0.47;0.40;;;;;;;13.17;100.00;101560.34;5007779;28;20084;-78
2022/10/06 08:06:37;;;;;;;0.40;0.40;;;;;;;13.39;100.00;101566.91;5009079;28;20056;-80
2022/10/06 08:09:04;;;;;;;0.40;0.40;;;;;;;13.47;100.00;101561.47;5005582;28;20127;-81
2022/10/06 08:11:30;;;;;;;0.52;0.52;;;;;;;13.56;100.00;101562.25;5006300;28;20513;-79
2022/10/06 08:13:55;;;;;;;0.65;0.50;;;;;;;13.55;100.00;101556.03;5018252;28;20034;-82
2022/10/06 08:16:22;;;;;;;0.52;0.52;;;;;;;13.71;100.00;101562.38;5024146;28;20061;-80
2022/10/06 08:18:53;;;;;;;0.40;0.40;;;;;;;13.84;100.00;101568.03;5008041;28;20030;-79
2022/10/06 08:21:20;;;;;;;0.43;0.43;;;;;;;13.82;100.00;101567.38;5024178;28;20044;-78
2022/10/06 08:23:47;;;;;;;1.35;0.50;;;;;;;13.86;100.00;101568.69;5006787;28;20116;-79
2022/10/06 08:26:14;;;;;;;1.75;0.82;;;;;;;13.91;100.00;101569.00;4985878;28;20116;-79
2022/10/06 08:28:46;;;;;;;0.40;0.40;;;;;;;14.24;100.00;101579.63;4988131;28;20992;-80
2022/10/06 08:31:12;;;;;;;0.77;0.60;;;;;;;14.44;100.00;101575.38;5003290;28;20090;-79
2022/10/06 08:33:38;;;;;;;0.98;0.70;;;;;;;14.58;100.00;101573.81;5003097;28;20092;-78
2022/10/06 08:36:07;;;;;;;0.65;0.55;;;;;;;14.60;100.00;101584.44;5025937;28;20032;-78
2022/10/06 08:38:35;;;;;;;0.73;0.70;;;;;;;14.39;100.00;101583.19;5023796;28;20033;-78
2022/10/06 08:41:02;;;;;;;1.67;1.33;;;;;;;14.39;100.00;101564.25;4995063;28;20048;-77
2022/10/06 08:43:27;;;;;;;2.60;1.20;;;;;;;14.59;100.00;101574.63;4993197;28;20049;-78
2022/10/06 08:45:58;;;;;;;1.92;0.90;;;;;;;14.76;100.00;101578.88;5008970;28;20048;-78
2022/10/06 08:48:28;;;;;;;1.38;0.68;;;;;;;14.69;100.00;101588.78;5019008;28;20033;-78
2022/10/06 08:51:06;;;;;;;2.35;0.98;;;;;;;14.65;100.00;101565.78;5029520;28;20451;-79
2022/10/06 08:53:45;;;;;;;0.40;0.40;;;;;;;14.50;100.00;101574.69;5006159;28;20079;-79
2022/10/06 08:56:50;;;;;;;0.35;0.35;;;;;;;14.57;100.00;101574.81;5003394;28;20120;-79
2022/10/06 08:59:16;;;;;;;4.97;1.02;;;;;;;14.57;100.00;101573.97;4997954;28;20056;-77
2022/10/06 09:01:42;;;;;;;0.47;0.47;;;;;;;14.49;100.00;101569.44;5025443;28;20029;-78
2022/10/06 09:04:09;;;;;;;0.40;0.40;;;;;;;14.41;100.00;101554.09;5016800;28;20077;-80
2022/10/06 09:07:02;;;;;;;0.75;0.60;;;;;;;14.50;100.00;101573.81;5042073;28;20065;-77
2022/10/06 09:09:37;;;;;;;0.50;0.50;;;;;;;14.25;100.00;101560.50;5018318;28;20479;-77
2022/10/06 09:12:20;;;;;;;0.43;0.43;;;;;;;14.38;100.00;101556.34;5026977;28;21208;-79
2022/10/06 09:14:52;;;;;;;0.52;0.50;;;;;;;14.52;100.00;101556.41;5025176;28;20025;-76
2022/10/06 09:17:32;;;;;;;0.93;0.60;;;;;;;14.33;100.00;101573.13;5023067;28;20029;-78
2022/10/06 09:20:01;;;;;;;1.27;0.50;;;;;;;14.20;100.00;101564.75;5025356;28;20033;-76
2022/10/06 09:22:29;;;;;;;1.50;0.40;;;;;;;14.31;100.00;101564.31;4990518;28;20504;-76
2022/10/06 09:25:13;;;;;;;0.40;0.40;;;;;;;14.55;100.00;101566.03;4992274;28;20053;-76
2022/10/06 09:27:40;;;;;;;0.80;0.80;;;;;;;15.85;100.00;101564.78;5003111;28;20044;-77
2022/10/06 09:30:13;;;;;;;5.45;1.42;;;;;;;17.46;100.00;101572.19;4988381;28;20092;-78
2022/10/06 09:32:47;;;;;;;3.90;0.95;;;;;;;17.26;100.00;101549.53;5012343;28;20020;-79
2022/10/06 09:35:22;;;;;;;1.50;0.70;;;;;;;17.52;100.00;101559.72;5000523;28;20088;-80
2022/10/06 09:37:52;;;;;;;1.13;0.50;;;;;;;18.24;100.00;101571.88;5014547;28;20124;-79
2022/10/06 09:40:48;;;;;;;1.35;0.60;;;;;;;17.09;100.00;101585.19;5018500;28;20082;-79
2022/10/06 09:43:34;;;;;;;2.75;0.75;;;;;;;16.11;100.00;101570.50;4991033;28;20181;-79
2022/10/06 09:46:33;;;;;;;0.40;0.40;;;;;;;15.38;100.00;101581.28;5005609;28;20046;-78
2022/10/06 09:49:06;;;;;;;1.27;0.63;;;;;;;15.03;100.00;101577.44;4995365;28;20038;-79
2022/10/06 09:51:36;;;;;;;4.05;1.05;;;;;;;14.78;100.00;101579.53;5008093;28;20219;-79
2022/10/06 09:54:09;;;;;;;0.40;0.40;;;;;;;14.73;100.00;101582.78;5009767;28;20049;-78
2022/10/06 09:56:39;;;;;;;0.50;0.50;;;;;;;14.95;100.00;101585.63;5020679;28;20087;-78
2022/10/06 09:59:24;;;;;;;0.60;0.60;;;;;;;15.92;100.00;101579.25;4992920;28;20401;-78
2022/10/06 10:01:54;;;;;;;0.73;0.70;;;;;;;17.40;100.00;101570.31;5025693;28;20368;-78
2022/10/06 10:04:33;;;;;;;2.38;0.80;;;;;;;17.50;100.00;101586.25;5011394;28;20060;-79
2022/10/06 10:07:13;;;;;;;0.68;0.65;;;;;;;17.34;100.00;101576.53;5005580;28;20044;-78
2022/10/06 10:09:40;;;;;;;1.55;1.30;;;;;;;16.73;100.00;101576.31;5028537;28;20029;-78
2022/10/06 10:12:26;;;;;;;0.50;0.50;;;;;;;16.23;100.00;101577.09;5009456;28;20159;-78
2022/10/06 10:15:00;;;;;;;2.05;0.82;;;;;;;16.03;100.00;101578.75;4993810;28;20354;-79
2022/10/06 10:17:37;;;;;;;2.58;0.88;;;;;;;16.05;100.00;101550.41;5014460;28;20037;-78
2022/10/06 10:20:07;;;;;;;1.45;0.98;;;;;;;16.13;100.00;101584.72;5005504;28;20457;-78
2022/10/06 10:22:38;;;;;;;0.52;0.50;;;;;;;16.57;100.00;101586.41;4992491;28;20079;-79
2022/10/06 10:25:43;;;;;;;1.10;0.60;;;;;;;16.50;100.00;101590.94;5010169;28;20083;-78
2022/10/06 10:28:47;;;;;;;0.90;0.57;;;;;;;16.42;100.00;101589.19;5027579;28;20034;-78
2022/10/06 10:31:58;;;;;;;0.75;0.57;;;;;;;16.15;100.00;101579.09;5026009;28;20033;-79
2022/10/06 10:34:42;;;;;;;0.90;0.65;;;;;;;15.81;100.00;101581.44;5028717;28;20037;-79
2022/10/06 10:37:13;;;;;;;2.70;1.13;;;;;;;15.66;100.00;101583.28;5014481;28;20098;-79
2022/10/06 10:39:45;;;;;;;7.22;1.55;;;;;;;15.67;100.00;101578.75;5032352;28;20025;-78
2022/10/06 10:42:29;;;;;;;5.85;1.10;;;;;;;15.78;100.00;101579.09;5025922;28;20120;-78
2022/10/06 10:45:01;;;;;;;2.08;1.00;;;;;;;16.04;100.00;101584.00;5024475;28;20044;-78
2022/10/06 10:47:31;;;;;;;3.78;1.13;;;;;;;16.34;100.00;101586.59;4987746;28;20033;-79
2022/10/06 10:50:31;;;;;;;10.20;2.20;;;;;;;16.58;100.00;101574.50;5008352;28;20040;-79
2022/10/06 10:53:07;;;;;;;5.40;2.00;;;;;;;16.97;100.00;101573.19;5019395;28;20041;-78
2022/10/06 10:55:39;;;;;;;8.65;2.30;;;;;;;17.18;100.00;101571.44;5022304;28;20545;-79
2022/10/06 10:58:24;;;;;;;13.27;3.17;;;;;;;17.45;100.00;101575.13;5028623;28;20382;-78
2022/10/06 11:00:55;;;;;;;18.48;3.13;;;;;;;17.50;100.00;101570.78;5007355;28;20068;-80
2022/10/06 11:03:21;;;;;;;12.05;2.55;;;;;;;17.50;100.00;101569.94;5013433;28;20048;-80
2022/10/06 11:06:23;;;;;;;7.75;2.42;;;;;;;17.41;100.00;101576.56;5020317;28;20467;-79
2022/10/06 11:09:02;;;;;;;8.95;2.35;;;;;;;17.13;100.00;101553.00;4986311;28;20479;-80
2022/10/06 11:11:35;;;;;;;12.25;3.65;;;;;;;17.05;100.00;101586.59;4995004;28;20497;-79
2022/10/06 11:14:03;;;;;;;10.43;2.45;;;;;;;17.18;100.00;101574.16;5011246;28;20037;-80
2022/10/06 11:17:00;;;;;;;13.60;2.35;;;;;;;17.47;100.00;101579.34;4985123;28;20041;-79
2022/10/06 11:19:51;;;;;;;8.50;2.55;;;;;;;17.55;100.00;101564.72;5007894;28;20049;-80
2022/10/06 11:22:28;;;;;;;12.45;2.25;;;;;;;17.61;100.00;101577.50;5007531;28;20383;-79
2022/10/06 11:25:24;;;;;;;9.00;2.50;;;;;;;17.52;100.00;101579.56;5009138;28;20052;-79
2022/10/06 11:27:59;;;;;;;8.15;1.83;;;;;;;16.99;100.00;101567.53;5022033;28;20084;-80
2022/10/06 11:30:25;;;;;;;6.32;1.60;;;;;;;16.59;100.00;101559.03;5002861;28;20030;-79
2022/10/06 11:33:21;;;;;;;7.20;1.92;;;;;;;16.27;100.00;101556.69;5027227;28;20116;-79
2022/10/06 11:35:47;;;;;;;13.55;1.95;;;;;;;16.13;100.00;101560.28;5013384;28;20434;-79
2022/10/06 11:38:41;;;;;;;9.65;2.42;;;;;;;16.09;100.00;101566.28;5024223;28;20040;-80
2022/10/06 11:41:21;;;;;;;7.85;1.90;;;;;;;15.91;100.00;101567.59;4986396;28;20380;-79
2022/10/06 11:44:25;;;;;;;14.15;2.15;;;;;;;16.29;100.00;101558.38;4995294;28;20033;-79
2022/10/06 11:46:53;;;;;;;9.60;1.98;;;;;;;16.48;100.00;101552.28;5021507;28;20052;-79